sensor_id;sensor_type;location;lat;lon;timestamp;P1;durP1;ratioP1;P2;durP2;ratioP2
35120;SDS011;21297;52.008;4.576;2023-06-10T00:00:54;10.60;;;7.03;;
35120;SDS011;21297;52.008;4.576;2023-06-10T00:03:41;14.48;;;7.38;;
35120;SDS011;21297;52.008;4.576;2023-06-10T00:06:28;14.00;;;7.40;;
35120;SDS011;21297;52.008;4.576;2023-06-10T00:09:20;14.82;;;7.28;;
35120;SDS011;21297;52.008;4.576;2023-06-10T00:12:07;11.40;;;6.82;;
35120;SDS011;21297;52.008;4.576;2023-06-10T00:14:55;13.07;;;6.80;;
35120;SDS011;21297;52.008;4.576;2023-06-10T00:17:40;14.45;;;8.07;;
35120;SDS011;21297;52.008;4.576;2023-06-10T00:20:26;14.90;;;7.90;;
35120;SDS011;21297;52.008;4.576;2023-06-10T00:23:11;12.13;;;7.18;;
35120;SDS011;21297;52.008;4.576;2023-06-10T00:25:58;11.70;;;7.63;;
35120;SDS011;21297;52.008;4.576;2023-06-10T00:28:45;13.80;;;7.60;;
35120;SDS011;21297;52.008;4.576;2023-06-10T00:31:30;12.18;;;7.78;;
35120;SDS011;21297;52.008;4.576;2023-06-10T00:34:16;18.60;;;7.85;;
35120;SDS011;21297;52.008;4.576;2023-06-10T00:37:01;11.02;;;7.15;;
35120;SDS011;21297;52.008;4.576;2023-06-10T00:39:47;15.57;;;7.60;;
35120;SDS011;21297;52.008;4.576;2023-06-10T00:42:33;10.27;;;7.22;;
35120;SDS011;21297;52.008;4.576;2023-06-10T00:45:19;12.52;;;7.78;;
35120;SDS011;21297;52.008;4.576;2023-06-10T00:48:04;10.50;;;7.43;;
35120;SDS011;21297;52.008;4.576;2023-06-10T00:50:50;11.57;;;7.35;;
35120;SDS011;21297;52.008;4.576;2023-06-10T00:53:36;20.80;;;8.27;;
35120;SDS011;21297;52.008;4.576;2023-06-10T00:56:24;14.13;;;7.90;;
35120;SDS011;21297;52.008;4.576;2023-06-10T00:59:11;14.07;;;7.05;;
35120;SDS011;21297;52.008;4.576;2023-06-10T01:01:56;12.65;;;8.40;;
35120;SDS011;21297;52.008;4.576;2023-06-10T01:04:42;12.75;;;7.43;;
35120;SDS011;21297;52.008;4.576;2023-06-10T01:07:31;14.50;;;6.90;;
35120;SDS011;21297;52.008;4.576;2023-06-10T01:10:24;12.10;;;7.43;;
35120;SDS011;21297;52.008;4.576;2023-06-10T01:13:11;12.32;;;6.97;;
35120;SDS011;21297;52.008;4.576;2023-06-10T01:15:59;14.35;;;7.32;;
35120;SDS011;21297;52.008;4.576;2023-06-10T01:18:44;14.32;;;7.35;;
35120;SDS011;21297;52.008;4.576;2023-06-10T01:21:30;12.45;;;7.40;;
35120;SDS011;21297;52.008;4.576;2023-06-10T01:24:16;14.93;;;7.53;;
35120;SDS011;21297;52.008;4.576;2023-06-10T01:27:05;15.25;;;7.38;;
35120;SDS011;21297;52.008;4.576;2023-06-10T01:29:58;15.15;;;7.90;;
35120;SDS011;21297;52.008;4.576;2023-06-10T01:32:50;13.10;;;7.28;;
35120;SDS011;21297;52.008;4.576;2023-06-10T01:35:37;11.77;;;7.72;;
35120;SDS011;21297;52.008;4.576;2023-06-10T01:38:25;11.73;;;6.55;;
35120;SDS011;21297;52.008;4.576;2023-06-10T01:41:13;16.83;;;7.85;;
35120;SDS011;21297;52.008;4.576;2023-06-10T01:44:01;11.48;;;7.05;;
35120;SDS011;21297;52.008;4.576;2023-06-10T01:46:46;12.80;;;7.40;;
35120;SDS011;21297;52.008;4.576;2023-06-10T01:49:32;12.85;;;7.10;;
35120;SDS011;21297;52.008;4.576;2023-06-10T01:52:18;11.30;;;7.60;;
35120;SDS011;21297;52.008;4.576;2023-06-10T01:55:03;16.17;;;7.65;;
35120;SDS011;21297;52.008;4.576;2023-06-10T01:57:49;15.82;;;8.35;;
35120;SDS011;21297;52.008;4.576;2023-06-10T02:00:35;15.90;;;8.38;;
35120;SDS011;21297;52.008;4.576;2023-06-10T02:03:21;16.15;;;8.60;;
35120;SDS011;21297;52.008;4.576;2023-06-10T02:06:06;19.15;;;9.40;;
35120;SDS011;21297;52.008;4.576;2023-06-10T02:08:52;19.23;;;9.07;;
35120;SDS011;21297;52.008;4.576;2023-06-10T02:11:38;15.25;;;8.90;;
35120;SDS011;21297;52.008;4.576;2023-06-10T02:14:23;14.80;;;7.78;;
35120;SDS011;21297;52.008;4.576;2023-06-10T02:17:09;15.23;;;8.25;;
35120;SDS011;21297;52.008;4.576;2023-06-10T02:19:57;14.07;;;7.63;;
35120;SDS011;21297;52.008;4.576;2023-06-10T02:22:44;12.43;;;7.50;;
35120;SDS011;21297;52.008;4.576;2023-06-10T02:25:30;12.23;;;6.57;;
35120;SDS011;21297;52.008;4.576;2023-06-10T02:28:16;13.95;;;7.35;;
35120;SDS011;21297;52.008;4.576;2023-06-10T02:31:01;14.88;;;7.47;;
35120;SDS011;21297;52.008;4.576;2023-06-10T02:33:47;11.77;;;7.32;;
35120;SDS011;21297;52.008;4.576;2023-06-10T02:36:33;11.73;;;6.55;;
35120;SDS011;21297;52.008;4.576;2023-06-10T02:39:21;19.48;;;7.85;;
35120;SDS011;21297;52.008;4.576;2023-06-10T02:42:07;13.95;;;7.28;;
35120;SDS011;21297;52.008;4.576;2023-06-10T02:44:53;16.02;;;8.48;;
35120;SDS011;21297;52.008;4.576;2023-06-10T02:47:39;20.92;;;9.88;;
35120;SDS011;21297;52.008;4.576;2023-06-10T02:50:27;15.18;;;9.00;;
35120;SDS011;21297;52.008;4.576;2023-06-10T02:53:13;16.25;;;10.20;;
35120;SDS011;21297;52.008;4.576;2023-06-10T02:55:58;17.23;;;9.50;;
35120;SDS011;21297;52.008;4.576;2023-06-10T02:58:45;14.60;;;8.30;;
35120;SDS011;21297;52.008;4.576;2023-06-10T03:01:31;12.18;;;7.57;;
35120;SDS011;21297;52.008;4.576;2023-06-10T03:04:17;13.45;;;7.03;;
35120;SDS011;21297;52.008;4.576;2023-06-10T03:07:03;12.10;;;7.22;;
35120;SDS011;21297;52.008;4.576;2023-06-10T03:09:52;12.38;;;6.97;;
35120;SDS011;21297;52.008;4.576;2023-06-10T03:12:38;13.82;;;6.63;;
35120;SDS011;21297;52.008;4.576;2023-06-10T03:15:23;13.68;;;7.15;;
35120;SDS011;21297;52.008;4.576;2023-06-10T03:18:09;10.90;;;6.43;;
35120;SDS011;21297;52.008;4.576;2023-06-10T03:20:55;12.02;;;7.18;;
35120;SDS011;21297;52.008;4.576;2023-06-10T03:23:42;11.93;;;7.10;;
35120;SDS011;21297;52.008;4.576;2023-06-10T03:26:27;12.93;;;7.10;;
35120;SDS011;21297;52.008;4.576;2023-06-10T03:29:13;11.25;;;6.75;;
35120;SDS011;21297;52.008;4.576;2023-06-10T03:31:59;9.85;;;6.03;;
35120;SDS011;21297;52.008;4.576;2023-06-10T03:34:44;11.70;;;6.43;;
35120;SDS011;21297;52.008;4.576;2023-06-10T03:37:30;12.55;;;7.00;;
35120;SDS011;21297;52.008;4.576;2023-06-10T03:40:16;14.10;;;8.85;;
35120;SDS011;21297;52.008;4.576;2023-06-10T03:43:01;14.90;;;6.97;;
35120;SDS011;21297;52.008;4.576;2023-06-10T03:45:47;10.32;;;6.53;;
35120;SDS011;21297;52.008;4.576;2023-06-10T03:48:33;15.30;;;6.95;;
35120;SDS011;21297;52.008;4.576;2023-06-10T03:51:19;11.35;;;6.38;;
35120;SDS011;21297;52.008;4.576;2023-06-10T03:54:05;12.80;;;6.93;;
35120;SDS011;21297;52.008;4.576;2023-06-10T03:56:50;12.27;;;6.85;;
35120;SDS011;21297;52.008;4.576;2023-06-10T03:59:36;10.90;;;6.65;;
35120;SDS011;21297;52.008;4.576;2023-06-10T04:02:22;12.05;;;6.25;;
35120;SDS011;21297;52.008;4.576;2023-06-10T04:05:08;17.20;;;7.10;;
35120;SDS011;21297;52.008;4.576;2023-06-10T04:07:53;11.20;;;6.45;;
35120;SDS011;21297;52.008;4.576;2023-06-10T04:10:39;13.48;;;6.07;;
35120;SDS011;21297;52.008;4.576;2023-06-10T04:13:25;12.85;;;5.75;;
35120;SDS011;21297;52.008;4.576;2023-06-10T04:16:11;15.95;;;6.95;;
35120;SDS011;21297;52.008;4.576;2023-06-10T04:18:58;11.98;;;5.93;;
35120;SDS011;21297;52.008;4.576;2023-06-10T04:21:45;17.33;;;7.13;;
35120;SDS011;21297;52.008;4.576;2023-06-10T04:24:31;14.73;;;6.50;;
35120;SDS011;21297;52.008;4.576;2023-06-10T04:27:17;13.38;;;6.22;;
35120;SDS011;21297;52.008;4.576;2023-06-10T04:30:03;10.80;;;5.40;;
35120;SDS011;21297;52.008;4.576;2023-06-10T04:32:49;13.43;;;6.28;;
35120;SDS011;21297;52.008;4.576;2023-06-10T04:35:35;13.13;;;5.65;;
35120;SDS011;21297;52.008;4.576;2023-06-10T04:38:20;12.32;;;6.35;;
35120;SDS011;21297;52.008;4.576;2023-06-10T04:41:06;14.30;;;6.80;;
35120;SDS011;21297;52.008;4.576;2023-06-10T04:43:52;12.45;;;5.70;;
35120;SDS011;21297;52.008;4.576;2023-06-10T04:46:38;11.25;;;6.35;;
35120;SDS011;21297;52.008;4.576;2023-06-10T04:49:24;13.18;;;5.88;;
35120;SDS011;21297;52.008;4.576;2023-06-10T04:52:10;11.80;;;6.65;;
35120;SDS011;21297;52.008;4.576;2023-06-10T04:54:57;14.20;;;6.35;;
35120;SDS011;21297;52.008;4.576;2023-06-10T04:57:43;10.18;;;6.22;;
35120;SDS011;21297;52.008;4.576;2023-06-10T05:00:29;11.38;;;6.60;;
35120;SDS011;21297;52.008;4.576;2023-06-10T05:03:14;12.60;;;6.70;;
35120;SDS011;21297;52.008;4.576;2023-06-10T05:06:00;15.20;;;6.75;;
35120;SDS011;21297;52.008;4.576;2023-06-10T05:08:46;13.52;;;6.40;;
35120;SDS011;21297;52.008;4.576;2023-06-10T05:11:32;13.38;;;6.20;;
35120;SDS011;21297;52.008;4.576;2023-06-10T05:14:18;18.80;;;6.45;;
35120;SDS011;21297;52.008;4.576;2023-06-10T05:17:04;12.82;;;5.90;;
35120;SDS011;21297;52.008;4.576;2023-06-10T05:19:51;13.88;;;6.70;;
35120;SDS011;21297;52.008;4.576;2023-06-10T05:22:37;12.52;;;5.90;;
35120;SDS011;21297;52.008;4.576;2023-06-10T05:25:23;10.68;;;6.18;;
35120;SDS011;21297;52.008;4.576;2023-06-10T05:28:10;16.98;;;6.53;;
35120;SDS011;21297;52.008;4.576;2023-06-10T05:30:56;15.63;;;6.15;;
35120;SDS011;21297;52.008;4.576;2023-06-10T05:33:42;10.98;;;5.75;;
35120;SDS011;21297;52.008;4.576;2023-06-10T05:36:27;12.63;;;5.50;;
35120;SDS011;21297;52.008;4.576;2023-06-10T05:39:13;14.88;;;6.10;;
35120;SDS011;21297;52.008;4.576;2023-06-10T05:41:59;11.50;;;5.57;;
35120;SDS011;21297;52.008;4.576;2023-06-10T05:44:46;15.57;;;6.57;;
35120;SDS011;21297;52.008;4.576;2023-06-10T05:47:32;11.55;;;5.93;;
35120;SDS011;21297;52.008;4.576;2023-06-10T05:50:17;16.58;;;5.82;;
35120;SDS011;21297;52.008;4.576;2023-06-10T05:53:04;11.70;;;6.00;;
35120;SDS011;21297;52.008;4.576;2023-06-10T05:55:52;12.07;;;5.85;;
35120;SDS011;21297;52.008;4.576;2023-06-10T05:58:39;9.77;;;6.05;;
35120;SDS011;21297;52.008;4.576;2023-06-10T06:01:24;14.15;;;6.22;;
35120;SDS011;21297;52.008;4.576;2023-06-10T06:04:10;15.55;;;5.95;;
35120;SDS011;21297;52.008;4.576;2023-06-10T06:06:56;16.50;;;6.03;;
35120;SDS011;21297;52.008;4.576;2023-06-10T06:09:41;13.90;;;6.45;;
35120;SDS011;21297;52.008;4.576;2023-06-10T06:12:27;11.60;;;6.13;;
35120;SDS011;21297;52.008;4.576;2023-06-10T06:15:13;12.95;;;6.20;;
35120;SDS011;21297;52.008;4.576;2023-06-10T06:17:58;12.90;;;6.05;;
35120;SDS011;21297;52.008;4.576;2023-06-10T06:20:44;16.30;;;6.20;;
35120;SDS011;21297;52.008;4.576;2023-06-10T06:23:30;11.90;;;6.07;;
35120;SDS011;21297;52.008;4.576;2023-06-10T06:26:15;14.15;;;6.30;;
35120;SDS011;21297;52.008;4.576;2023-06-10T06:29:01;12.27;;;6.88;;
35120;SDS011;21297;52.008;4.576;2023-06-10T06:31:47;11.25;;;6.10;;
35120;SDS011;21297;52.008;4.576;2023-06-10T06:34:32;16.25;;;6.30;;
35120;SDS011;21297;52.008;4.576;2023-06-10T06:37:18;12.38;;;6.05;;
35120;SDS011;21297;52.008;4.576;2023-06-10T06:40:04;17.00;;;5.85;;
35120;SDS011;21297;52.008;4.576;2023-06-10T06:42:50;15.00;;;6.90;;
35120;SDS011;21297;52.008;4.576;2023-06-10T06:45:36;11.35;;;5.45;;
35120;SDS011;21297;52.008;4.576;2023-06-10T06:48:22;12.25;;;6.18;;
35120;SDS011;21297;52.008;4.576;2023-06-10T06:51:07;15.68;;;6.85;;
35120;SDS011;21297;52.008;4.576;2023-06-10T06:53:53;14.65;;;5.60;;
35120;SDS011;21297;52.008;4.576;2023-06-10T06:56:42;11.18;;;6.07;;
35120;SDS011;21297;52.008;4.576;2023-06-10T06:59:27;12.45;;;5.90;;
35120;SDS011;21297;52.008;4.576;2023-06-10T07:02:13;11.95;;;5.75;;
35120;SDS011;21297;52.008;4.576;2023-06-10T07:04:58;9.88;;;5.68;;
35120;SDS011;21297;52.008;4.576;2023-06-10T07:07:44;13.05;;;5.47;;
35120;SDS011;21297;52.008;4.576;2023-06-10T07:10:30;12.48;;;5.93;;
35120;SDS011;21297;52.008;4.576;2023-06-10T07:13:16;13.27;;;5.88;;
35120;SDS011;21297;52.008;4.576;2023-06-10T07:16:01;14.27;;;5.78;;
35120;SDS011;21297;52.008;4.576;2023-06-10T07:18:47;13.38;;;6.15;;
35120;SDS011;21297;52.008;4.576;2023-06-10T07:21:33;15.15;;;5.82;;
35120;SDS011;21297;52.008;4.576;2023-06-10T07:24:19;13.02;;;5.50;;
35120;SDS011;21297;52.008;4.576;2023-06-10T07:27:05;13.18;;;5.70;;
35120;SDS011;21297;52.008;4.576;2023-06-10T07:29:52;15.38;;;5.85;;
35120;SDS011;21297;52.008;4.576;2023-06-10T07:32:38;11.25;;;5.85;;
35120;SDS011;21297;52.008;4.576;2023-06-10T07:35:23;12.32;;;5.63;;
35120;SDS011;21297;52.008;4.576;2023-06-10T07:38:09;11.43;;;5.55;;
35120;SDS011;21297;52.008;4.576;2023-06-10T07:40:54;12.75;;;5.53;;
35120;SDS011;21297;52.008;4.576;2023-06-10T07:43:40;22.48;;;6.53;;
35120;SDS011;21297;52.008;4.576;2023-06-10T07:46:26;10.93;;;5.93;;
35120;SDS011;21297;52.008;4.576;2023-06-10T07:49:12;10.40;;;5.20;;
35120;SDS011;21297;52.008;4.576;2023-06-10T07:51:58;20.42;;;6.25;;
35120;SDS011;21297;52.008;4.576;2023-06-10T07:54:43;15.45;;;5.78;;
35120;SDS011;21297;52.008;4.576;2023-06-10T07:57:29;12.98;;;5.68;;
35120;SDS011;21297;52.008;4.576;2023-06-10T08:00:17;16.45;;;6.05;;
35120;SDS011;21297;52.008;4.576;2023-06-10T08:03:03;12.35;;;5.20;;
35120;SDS011;21297;52.008;4.576;2023-06-10T08:05:48;15.45;;;5.63;;
35120;SDS011;21297;52.008;4.576;2023-06-10T08:08:34;11.35;;;5.20;;
35120;SDS011;21297;52.008;4.576;2023-06-10T08:11:20;52.78;;;8.80;;
35120;SDS011;21297;52.008;4.576;2023-06-10T08:14:05;10.73;;;4.80;;
35120;SDS011;21297;52.008;4.576;2023-06-10T08:16:51;10.88;;;5.45;;
35120;SDS011;21297;52.008;4.576;2023-06-10T08:19:37;12.48;;;5.10;;
35120;SDS011;21297;52.008;4.576;2023-06-10T08:22:22;12.38;;;5.07;;
35120;SDS011;21297;52.008;4.576;2023-06-10T08:25:08;11.10;;;4.95;;
35120;SDS011;21297;52.008;4.576;2023-06-10T08:27:55;12.18;;;5.22;;
35120;SDS011;21297;52.008;4.576;2023-06-10T08:30:41;13.82;;;5.03;;
35120;SDS011;21297;52.008;4.576;2023-06-10T08:33:27;10.20;;;5.07;;
35120;SDS011;21297;52.008;4.576;2023-06-10T08:36:13;12.85;;;5.00;;
35120;SDS011;21297;52.008;4.576;2023-06-10T08:38:59;15.55;;;5.00;;
35120;SDS011;21297;52.008;4.576;2023-06-10T08:41:46;11.30;;;5.78;;
35120;SDS011;21297;52.008;4.576;2023-06-10T08:44:44;11.65;;;5.43;;
35120;SDS011;21297;52.008;4.576;2023-06-10T08:47:31;10.00;;;5.38;;
35120;SDS011;21297;52.008;4.576;2023-06-10T08:53:08;9.93;;;4.30;;
35120;SDS011;21297;52.008;4.576;2023-06-10T08:55:54;10.15;;;4.82;;
35120;SDS011;21297;52.008;4.576;2023-06-10T08:58:43;9.73;;;4.50;;
35120;SDS011;21297;52.008;4.576;2023-06-10T09:01:30;14.27;;;5.50;;
35120;SDS011;21297;52.008;4.576;2023-06-10T09:04:16;9.90;;;5.43;;
35120;SDS011;21297;52.008;4.576;2023-06-10T09:07:03;18.88;;;5.75;;
35120;SDS011;21297;52.008;4.576;2023-06-10T09:09:49;15.95;;;5.32;;
35120;SDS011;21297;52.008;4.576;2023-06-10T09:12:35;9.68;;;4.55;;
35120;SDS011;21297;52.008;4.576;2023-06-10T09:15:23;12.23;;;4.85;;
35120;SDS011;21297;52.008;4.576;2023-06-10T09:18:09;8.73;;;4.65;;
35120;SDS011;21297;52.008;4.576;2023-06-10T09:20:55;10.63;;;5.30;;
35120;SDS011;21297;52.008;4.576;2023-06-10T09:23:40;14.20;;;6.18;;
35120;SDS011;21297;52.008;4.576;2023-06-10T09:26:29;8.05;;;4.63;;
35120;SDS011;21297;52.008;4.576;2023-06-10T09:29:15;10.98;;;4.82;;
35120;SDS011;21297;52.008;4.576;2023-06-10T09:32:00;11.13;;;5.30;;
35120;SDS011;21297;52.008;4.576;2023-06-10T09:34:47;13.23;;;5.32;;
35120;SDS011;21297;52.008;4.576;2023-06-10T09:37:38;12.30;;;5.30;;
35120;SDS011;21297;52.008;4.576;2023-06-10T09:40:24;11.50;;;4.88;;
35120;SDS011;21297;52.008;4.576;2023-06-10T09:43:10;10.93;;;5.30;;
35120;SDS011;21297;52.008;4.576;2023-06-10T09:45:58;10.98;;;4.95;;
35120;SDS011;21297;52.008;4.576;2023-06-10T09:48:44;10.73;;;4.40;;
35120;SDS011;21297;52.008;4.576;2023-06-10T09:51:31;11.80;;;5.00;;
35120;SDS011;21297;52.008;4.576;2023-06-10T09:54:19;12.32;;;4.60;;
35120;SDS011;21297;52.008;4.576;2023-06-10T09:57:08;12.75;;;4.93;;
35120;SDS011;21297;52.008;4.576;2023-06-10T09:59:56;9.77;;;4.80;;
35120;SDS011;21297;52.008;4.576;2023-06-10T10:02:49;10.15;;;4.97;;
35120;SDS011;21297;52.008;4.576;2023-06-10T10:05:36;10.52;;;5.60;;
35120;SDS011;21297;52.008;4.576;2023-06-10T10:08:22;9.82;;;4.97;;
35120;SDS011;21297;52.008;4.576;2023-06-10T10:11:08;12.73;;;5.45;;
35120;SDS011;21297;52.008;4.576;2023-06-10T10:13:55;11.45;;;4.93;;
35120;SDS011;21297;52.008;4.576;2023-06-10T10:16:41;8.57;;;4.68;;
35120;SDS011;21297;52.008;4.576;2023-06-10T10:19:28;9.40;;;4.70;;
35120;SDS011;21297;52.008;4.576;2023-06-10T10:22:19;12.30;;;4.90;;
35120;SDS011;21297;52.008;4.576;2023-06-10T10:25:10;9.15;;;5.07;;
35120;SDS011;21297;52.008;4.576;2023-06-10T10:28:02;10.70;;;4.88;;
35120;SDS011;21297;52.008;4.576;2023-06-10T10:30:59;12.38;;;5.10;;
35120;SDS011;21297;52.008;4.576;2023-06-10T10:33:59;9.75;;;4.90;;
35120;SDS011;21297;52.008;4.576;2023-06-10T10:36:47;12.13;;;5.00;;
35120;SDS011;21297;52.008;4.576;2023-06-10T10:39:34;9.88;;;4.63;;
35120;SDS011;21297;52.008;4.576;2023-06-10T10:42:24;16.45;;;5.22;;
35120;SDS011;21297;52.008;4.576;2023-06-10T10:45:10;10.88;;;4.25;;
35120;SDS011;21297;52.008;4.576;2023-06-10T10:48:07;12.77;;;5.30;;
35120;SDS011;21297;52.008;4.576;2023-06-10T10:51:01;8.65;;;4.65;;
35120;SDS011;21297;52.008;4.576;2023-06-10T11:00:03;10.40;;;5.25;;
35120;SDS011;21297;52.008;4.576;2023-06-10T11:02:57;9.25;;;5.00;;
35120;SDS011;21297;52.008;4.576;2023-06-10T11:11:26;10.75;;;4.97;;
35120;SDS011;21297;52.008;4.576;2023-06-10T11:14:14;13.80;;;4.93;;
35120;SDS011;21297;52.008;4.576;2023-06-10T11:17:21;10.27;;;4.82;;
35120;SDS011;21297;52.008;4.576;2023-06-10T11:20:10;11.60;;;4.35;;
35120;SDS011;21297;52.008;4.576;2023-06-10T11:22:59;8.77;;;4.95;;
35120;SDS011;21297;52.008;4.576;2023-06-10T11:31:55;9.77;;;4.75;;
35120;SDS011;21297;52.008;4.576;2023-06-10T11:34:41;10.07;;;4.60;;
35120;SDS011;21297;52.008;4.576;2023-06-10T11:37:29;10.02;;;4.57;;
35120;SDS011;21297;52.008;4.576;2023-06-10T11:40:17;13.40;;;4.82;;
35120;SDS011;21297;52.008;4.576;2023-06-10T11:43:08;9.25;;;4.50;;
35120;SDS011;21297;52.008;4.576;2023-06-10T11:46:00;10.10;;;4.47;;
35120;SDS011;21297;52.008;4.576;2023-06-10T11:48:54;9.88;;;4.78;;
35120;SDS011;21297;52.008;4.576;2023-06-10T11:51:49;10.32;;;4.25;;
35120;SDS011;21297;52.008;4.576;2023-06-10T11:54:46;8.77;;;4.78;;
35120;SDS011;21297;52.008;4.576;2023-06-10T11:57:49;9.15;;;4.65;;
35120;SDS011;21297;52.008;4.576;2023-06-10T12:00:54;8.23;;;4.40;;
35120;SDS011;21297;52.008;4.576;2023-06-10T12:04:08;7.35;;;4.18;;
35120;SDS011;21297;52.008;4.576;2023-06-10T12:07:05;10.37;;;4.27;;
35120;SDS011;21297;52.008;4.576;2023-06-10T12:10:04;8.52;;;4.28;;
35120;SDS011;21297;52.008;4.576;2023-06-10T12:12:59;9.35;;;4.38;;
35120;SDS011;21297;52.008;4.576;2023-06-10T12:16:16;8.45;;;4.05;;
35120;SDS011;21297;52.008;4.576;2023-06-10T12:19:21;8.23;;;4.40;;
35120;SDS011;21297;52.008;4.576;2023-06-10T12:22:09;10.35;;;4.38;;
35120;SDS011;21297;52.008;4.576;2023-06-10T12:28:26;8.15;;;4.38;;
35120;SDS011;21297;52.008;4.576;2023-06-10T12:31:33;10.55;;;4.13;;
35120;SDS011;21297;52.008;4.576;2023-06-10T12:35:01;7.60;;;4.40;;
35120;SDS011;21297;52.008;4.576;2023-06-10T12:37:58;7.95;;;4.63;;
35120;SDS011;21297;52.008;4.576;2023-06-10T12:41:20;9.55;;;4.43;;
35120;SDS011;21297;52.008;4.576;2023-06-10T12:47:48;12.45;;;4.90;;
35120;SDS011;21297;52.008;4.576;2023-06-10T12:51:11;11.52;;;4.78;;
35120;SDS011;21297;52.008;4.576;2023-06-10T13:05:21;8.48;;;4.50;;
35120;SDS011;21297;52.008;4.576;2023-06-10T13:12:57;10.02;;;4.53;;
35120;SDS011;21297;52.008;4.576;2023-06-10T13:35:12;9.05;;;3.92;;
35120;SDS011;21297;52.008;4.576;2023-06-10T13:38:41;8.38;;;4.15;;
35120;SDS011;21297;52.008;4.576;2023-06-10T13:46:06;7.40;;;4.00;;
35120;SDS011;21297;52.008;4.576;2023-06-10T13:53:25;8.85;;;3.80;;
35120;SDS011;21297;52.008;4.576;2023-06-10T13:57:02;8.18;;;4.45;;
35120;SDS011;21297;52.008;4.576;2023-06-10T14:07:49;9.98;;;3.90;;
35120;SDS011;21297;52.008;4.576;2023-06-10T14:11:03;8.05;;;4.43;;
35120;SDS011;21297;52.008;4.576;2023-06-10T14:14:35;10.73;;;4.20;;
35120;SDS011;21297;52.008;4.576;2023-06-10T14:21:49;10.45;;;4.18;;
35120;SDS011;21297;52.008;4.576;2023-06-10T14:25:24;8.27;;;3.60;;
35120;SDS011;21297;52.008;4.576;2023-06-10T14:51:43;10.23;;;3.92;;
35120;SDS011;21297;52.008;4.576;2023-06-10T15:03:11;8.30;;;3.85;;
35120;SDS011;21297;52.008;4.576;2023-06-10T15:10:22;10.18;;;3.70;;
35120;SDS011;21297;52.008;4.576;2023-06-10T15:13:45;7.90;;;3.97;;
35120;SDS011;21297;52.008;4.576;2023-06-10T15:20:44;9.32;;;4.15;;
35120;SDS011;21297;52.008;4.576;2023-06-10T15:23:57;8.32;;;4.13;;
35120;SDS011;21297;52.008;4.576;2023-06-10T15:26:56;9.20;;;3.83;;
35120;SDS011;21297;52.008;4.576;2023-06-10T15:29:58;10.50;;;3.90;;
35120;SDS011;21297;52.008;4.576;2023-06-10T15:32:58;8.25;;;3.95;;
35120;SDS011;21297;52.008;4.576;2023-06-10T15:36:10;9.32;;;3.95;;
35120;SDS011;21297;52.008;4.576;2023-06-10T15:39:02;8.15;;;4.03;;
35120;SDS011;21297;52.008;4.576;2023-06-10T15:41:54;8.88;;;4.10;;
35120;SDS011;21297;52.008;4.576;2023-06-10T15:44:55;9.85;;;3.70;;
35120;SDS011;21297;52.008;4.576;2023-06-10T15:47:55;11.40;;;4.30;;
35120;SDS011;21297;52.008;4.576;2023-06-10T15:50:46;13.05;;;4.20;;
35120;SDS011;21297;52.008;4.576;2023-06-10T15:53:37;8.55;;;3.80;;
35120;SDS011;21297;52.008;4.576;2023-06-10T15:56:23;7.35;;;3.67;;
35120;SDS011;21297;52.008;4.576;2023-06-10T15:59:17;8.35;;;3.83;;
35120;SDS011;21297;52.008;4.576;2023-06-10T16:02:08;8.68;;;4.10;;
35120;SDS011;21297;52.008;4.576;2023-06-10T16:04:55;11.15;;;3.97;;
35120;SDS011;21297;52.008;4.576;2023-06-10T16:07:40;8.90;;;3.92;;
35120;SDS011;21297;52.008;4.576;2023-06-10T16:10:29;13.02;;;4.07;;
35120;SDS011;21297;52.008;4.576;2023-06-10T16:13:15;7.70;;;3.60;;
35120;SDS011;21297;52.008;4.576;2023-06-10T16:16:03;9.13;;;4.13;;
35120;SDS011;21297;52.008;4.576;2023-06-10T16:18:51;8.38;;;4.20;;
35120;SDS011;21297;52.008;4.576;2023-06-10T16:21:36;10.75;;;4.40;;
35120;SDS011;21297;52.008;4.576;2023-06-10T16:24:25;9.32;;;4.05;;
35120;SDS011;21297;52.008;4.576;2023-06-10T16:27:10;9.90;;;3.38;;
35120;SDS011;21297;52.008;4.576;2023-06-10T16:29:56;12.70;;;4.15;;
35120;SDS011;21297;52.008;4.576;2023-06-10T16:32:42;12.13;;;3.28;;
35120;SDS011;21297;52.008;4.576;2023-06-10T16:35:27;10.30;;;3.85;;
35120;SDS011;21297;52.008;4.576;2023-06-10T16:38:13;9.68;;;3.63;;
35120;SDS011;21297;52.008;4.576;2023-06-10T16:40:58;9.55;;;4.03;;
35120;SDS011;21297;52.008;4.576;2023-06-10T16:43:44;8.73;;;3.83;;
35120;SDS011;21297;52.008;4.576;2023-06-10T16:46:30;7.03;;;3.72;;
35120;SDS011;21297;52.008;4.576;2023-06-10T16:49:15;10.00;;;3.65;;
35120;SDS011;21297;52.008;4.576;2023-06-10T16:52:01;8.35;;;3.58;;
35120;SDS011;21297;52.008;4.576;2023-06-10T16:54:47;8.25;;;3.78;;
35120;SDS011;21297;52.008;4.576;2023-06-10T16:57:33;12.88;;;4.07;;
35120;SDS011;21297;52.008;4.576;2023-06-10T17:00:18;14.60;;;4.00;;
35120;SDS011;21297;52.008;4.576;2023-06-10T17:03:04;8.75;;;3.58;;
35120;SDS011;21297;52.008;4.576;2023-06-10T17:05:50;6.43;;;3.38;;
35120;SDS011;21297;52.008;4.576;2023-06-10T17:08:36;7.40;;;3.30;;
35120;SDS011;21297;52.008;4.576;2023-06-10T17:11:21;7.38;;;3.35;;
35120;SDS011;21297;52.008;4.576;2023-06-10T17:14:07;9.77;;;3.60;;
35120;SDS011;21297;52.008;4.576;2023-06-10T17:16:53;9.13;;;4.35;;
35120;SDS011;21297;52.008;4.576;2023-06-10T17:19:39;10.13;;;3.95;;
35120;SDS011;21297;52.008;4.576;2023-06-10T17:22:24;12.48;;;3.47;;
35120;SDS011;21297;52.008;4.576;2023-06-10T17:25:10;8.90;;;3.53;;
35120;SDS011;21297;52.008;4.576;2023-06-10T17:27:56;8.45;;;3.17;;
35120;SDS011;21297;52.008;4.576;2023-06-10T17:30:41;9.00;;;3.65;;
35120;SDS011;21297;52.008;4.576;2023-06-10T17:33:27;12.13;;;3.20;;
35120;SDS011;21297;52.008;4.576;2023-06-10T17:36:13;8.40;;;3.38;;
35120;SDS011;21297;52.008;4.576;2023-06-10T17:38:59;7.38;;;3.72;;
35120;SDS011;21297;52.008;4.576;2023-06-10T17:41:44;15.13;;;3.70;;
35120;SDS011;21297;52.008;4.576;2023-06-10T17:44:30;8.20;;;3.38;;
35120;SDS011;21297;52.008;4.576;2023-06-10T17:47:16;8.27;;;3.30;;
35120;SDS011;21297;52.008;4.576;2023-06-10T17:50:02;8.23;;;3.63;;
35120;SDS011;21297;52.008;4.576;2023-06-10T17:52:48;10.90;;;3.78;;
35120;SDS011;21297;52.008;4.576;2023-06-10T17:55:34;6.65;;;3.08;;
35120;SDS011;21297;52.008;4.576;2023-06-10T17:58:20;10.15;;;3.92;;
35120;SDS011;21297;52.008;4.576;2023-06-10T18:01:05;10.18;;;3.47;;
35120;SDS011;21297;52.008;4.576;2023-06-10T18:03:51;8.63;;;3.50;;
35120;SDS011;21297;52.008;4.576;2023-06-10T18:06:37;7.95;;;3.55;;
35120;SDS011;21297;52.008;4.576;2023-06-10T18:09:22;8.25;;;3.47;;
35120;SDS011;21297;52.008;4.576;2023-06-10T18:12:10;13.93;;;3.78;;
35120;SDS011;21297;52.008;4.576;2023-06-10T18:14:56;9.02;;;3.83;;
35120;SDS011;21297;52.008;4.576;2023-06-10T18:17:42;9.32;;;2.92;;
35120;SDS011;21297;52.008;4.576;2023-06-10T18:20:27;8.00;;;3.15;;
35120;SDS011;21297;52.008;4.576;2023-06-10T18:23:13;10.68;;;3.00;;
35120;SDS011;21297;52.008;4.576;2023-06-10T18:25:59;7.20;;;3.03;;
35120;SDS011;21297;52.008;4.576;2023-06-10T18:28:44;7.93;;;3.00;;
35120;SDS011;21297;52.008;4.576;2023-06-10T18:31:30;7.55;;;3.10;;
35120;SDS011;21297;52.008;4.576;2023-06-10T18:34:15;8.25;;;2.92;;
35120;SDS011;21297;52.008;4.576;2023-06-10T18:37:02;10.50;;;3.22;;
35120;SDS011;21297;52.008;4.576;2023-06-10T18:39:51;8.25;;;3.42;;
35120;SDS011;21297;52.008;4.576;2023-06-10T18:42:36;6.25;;;3.10;;
35120;SDS011;21297;52.008;4.576;2023-06-10T18:45:22;9.15;;;3.08;;
35120;SDS011;21297;52.008;4.576;2023-06-10T18:48:08;11.15;;;3.13;;
35120;SDS011;21297;52.008;4.576;2023-06-10T18:50:54;10.27;;;3.70;;